sensor_id;sensor_type;location;lat;lon;timestamp;P1;durP1;ratioP1;P2;durP2;ratioP2
78891;SDS011;68368;51.728;5.248;2023-07-13T00:00:24;5.20;;;1.30;;
78891;SDS011;68368;51.728;5.248;2023-07-13T00:02:27;4.50;;;1.20;;
78891;SDS011;68368;51.728;5.248;2023-07-13T00:04:31;4.20;;;1.20;;
78891;SDS011;68368;51.728;5.248;2023-07-13T00:06:34;6.30;;;1.30;;
78891;SDS011;68368;51.728;5.248;2023-07-13T00:08:37;5.50;;;1.70;;
78891;SDS011;68368;51.728;5.248;2023-07-13T00:10:41;6.80;;;1.50;;
78891;SDS011;68368;51.728;5.248;2023-07-13T00:12:46;5.10;;;1.60;;
78891;SDS011;68368;51.728;5.248;2023-07-13T00:14:49;3.20;;;1.30;;
78891;SDS011;68368;51.728;5.248;2023-07-13T00:16:52;4.90;;;1.30;;
78891;SDS011;68368;51.728;5.248;2023-07-13T00:18:56;6.10;;;1.40;;
78891;SDS011;68368;51.728;5.248;2023-07-13T00:21:00;7.20;;;1.40;;
78891;SDS011;68368;51.728;5.248;2023-07-13T00:23:04;4.60;;;1.50;;
78891;SDS011;68368;51.728;5.248;2023-07-13T00:25:08;6.10;;;1.50;;
78891;SDS011;68368;51.728;5.248;2023-07-13T00:27:13;7.50;;;1.90;;
78891;SDS011;68368;51.728;5.248;2023-07-13T00:29:19;4.90;;;1.40;;
78891;SDS011;68368;51.728;5.248;2023-07-13T00:31:23;9.00;;;1.70;;
78891;SDS011;68368;51.728;5.248;2023-07-13T00:33:27;2.90;;;1.20;;
78891;SDS011;68368;51.728;5.248;2023-07-13T00:35:31;8.00;;;1.70;;
78891;SDS011;68368;51.728;5.248;2023-07-13T00:37:35;7.10;;;1.60;;
78891;SDS011;68368;51.728;5.248;2023-07-13T00:39:39;7.20;;;1.80;;
78891;SDS011;68368;51.728;5.248;2023-07-13T00:41:42;5.40;;;1.60;;
78891;SDS011;68368;51.728;5.248;2023-07-13T00:43:46;4.70;;;1.60;;
78891;SDS011;68368;51.728;5.248;2023-07-13T00:48:32;7.90;;;1.70;;
78891;SDS011;68368;51.728;5.248;2023-07-13T00:50:38;8.10;;;2.10;;
78891;SDS011;68368;51.728;5.248;2023-07-13T00:52:43;7.10;;;2.10;;
78891;SDS011;68368;51.728;5.248;2023-07-13T00:54:49;8.50;;;2.00;;
78891;SDS011;68368;51.728;5.248;2023-07-13T00:56:53;7.50;;;1.40;;
78891;SDS011;68368;51.728;5.248;2023-07-13T00:58:59;7.80;;;1.50;;
78891;SDS011;68368;51.728;5.248;2023-07-13T01:01:04;9.60;;;1.60;;
78891;SDS011;68368;51.728;5.248;2023-07-13T01:03:08;8.00;;;2.20;;
78891;SDS011;68368;51.728;5.248;2023-07-13T01:05:15;4.60;;;2.00;;
78891;SDS011;68368;51.728;5.248;2023-07-13T01:07:20;7.20;;;2.10;;
78891;SDS011;68368;51.728;5.248;2023-07-13T01:09:23;6.80;;;2.10;;
78891;SDS011;68368;51.728;5.248;2023-07-13T01:11:27;7.30;;;2.00;;
78891;SDS011;68368;51.728;5.248;2023-07-13T01:13:31;5.90;;;2.30;;
78891;SDS011;68368;51.728;5.248;2023-07-13T01:15:35;7.60;;;2.20;;
78891;SDS011;68368;51.728;5.248;2023-07-13T01:17:41;9.00;;;2.40;;
78891;SDS011;68368;51.728;5.248;2023-07-13T01:19:45;5.60;;;2.10;;
78891;SDS011;68368;51.728;5.248;2023-07-13T01:21:51;6.40;;;1.90;;
78891;SDS011;68368;51.728;5.248;2023-07-13T01:23:55;4.60;;;1.90;;
78891;SDS011;68368;51.728;5.248;2023-07-13T01:25:58;7.40;;;2.10;;
78891;SDS011;68368;51.728;5.248;2023-07-13T01:28:02;5.30;;;2.20;;
78891;SDS011;68368;51.728;5.248;2023-07-13T01:30:07;7.50;;;2.40;;
78891;SDS011;68368;51.728;5.248;2023-07-13T01:32:12;7.20;;;2.60;;
78891;SDS011;68368;51.728;5.248;2023-07-13T01:34:18;6.90;;;2.30;;
78891;SDS011;68368;51.728;5.248;2023-07-13T01:36:22;8.40;;;2.10;;
78891;SDS011;68368;51.728;5.248;2023-07-13T01:38:26;7.60;;;2.50;;
78891;SDS011;68368;51.728;5.248;2023-07-13T01:40:29;10.20;;;2.50;;
78891;SDS011;68368;51.728;5.248;2023-07-13T01:42:33;6.90;;;2.90;;
78891;SDS011;68368;51.728;5.248;2023-07-13T01:44:36;9.10;;;2.50;;
78891;SDS011;68368;51.728;5.248;2023-07-13T01:46:39;8.00;;;2.50;;
78891;SDS011;68368;51.728;5.248;2023-07-13T01:48:42;5.50;;;2.10;;
78891;SDS011;68368;51.728;5.248;2023-07-13T01:50:48;9.40;;;2.30;;
78891;SDS011;68368;51.728;5.248;2023-07-13T01:52:52;8.60;;;2.30;;
78891;SDS011;68368;51.728;5.248;2023-07-13T01:54:55;5.90;;;2.40;;
78891;SDS011;68368;51.728;5.248;2023-07-13T01:56:58;6.10;;;2.30;;
78891;SDS011;68368;51.728;5.248;2023-07-13T01:59:02;7.70;;;2.90;;
78891;SDS011;68368;51.728;5.248;2023-07-13T02:01:05;8.30;;;2.40;;
78891;SDS011;68368;51.728;5.248;2023-07-13T02:03:09;9.30;;;2.50;;
78891;SDS011;68368;51.728;5.248;2023-07-13T02:05:14;5.50;;;2.30;;
78891;SDS011;68368;51.728;5.248;2023-07-13T02:07:17;7.40;;;2.90;;
78891;SDS011;68368;51.728;5.248;2023-07-13T02:09:21;7.00;;;2.50;;
78891;SDS011;68368;51.728;5.248;2023-07-13T02:11:24;8.00;;;2.40;;
78891;SDS011;68368;51.728;5.248;2023-07-13T02:13:27;10.50;;;3.30;;
78891;SDS011;68368;51.728;5.248;2023-07-13T02:15:30;8.40;;;3.10;;
78891;SDS011;68368;51.728;5.248;2023-07-13T02:17:34;7.30;;;3.00;;
78891;SDS011;68368;51.728;5.248;2023-07-13T02:19:38;9.40;;;2.90;;
78891;SDS011;68368;51.728;5.248;2023-07-13T02:21:41;5.60;;;2.40;;
78891;SDS011;68368;51.728;5.248;2023-07-13T02:23:45;6.90;;;2.60;;
78891;SDS011;68368;51.728;5.248;2023-07-13T02:25:48;7.50;;;2.40;;
78891;SDS011;68368;51.728;5.248;2023-07-13T02:27:57;7.90;;;2.60;;
78891;SDS011;68368;51.728;5.248;2023-07-13T02:30:03;11.70;;;2.90;;
78891;SDS011;68368;51.728;5.248;2023-07-13T02:32:09;11.20;;;3.10;;
78891;SDS011;68368;51.728;5.248;2023-07-13T02:34:12;8.70;;;3.00;;
78891;SDS011;68368;51.728;5.248;2023-07-13T02:36:15;12.40;;;3.40;;
78891;SDS011;68368;51.728;5.248;2023-07-13T02:38:18;9.00;;;2.60;;
78891;SDS011;68368;51.728;5.248;2023-07-13T02:40:22;7.60;;;3.00;;
78891;SDS011;68368;51.728;5.248;2023-07-13T02:42:25;9.30;;;3.20;;
78891;SDS011;68368;51.728;5.248;2023-07-13T02:44:29;9.00;;;2.90;;
78891;SDS011;68368;51.728;5.248;2023-07-13T02:46:34;9.50;;;3.40;;
78891;SDS011;68368;51.728;5.248;2023-07-13T02:48:38;13.80;;;3.20;;
78891;SDS011;68368;51.728;5.248;2023-07-13T02:50:42;9.90;;;3.00;;
78891;SDS011;68368;51.728;5.248;2023-07-13T02:52:46;9.20;;;3.00;;
78891;SDS011;68368;51.728;5.248;2023-07-13T02:54:50;10.70;;;3.40;;
78891;SDS011;68368;51.728;5.248;2023-07-13T02:56:53;9.30;;;2.80;;
78891;SDS011;68368;51.728;5.248;2023-07-13T02:58:56;9.30;;;3.30;;
78891;SDS011;68368;51.728;5.248;2023-07-13T03:01:00;10.70;;;3.50;;
78891;SDS011;68368;51.728;5.248;2023-07-13T03:03:09;8.60;;;3.30;;
78891;SDS011;68368;51.728;5.248;2023-07-13T03:05:13;7.60;;;3.30;;
78891;SDS011;68368;51.728;5.248;2023-07-13T03:07:17;8.70;;;3.30;;
78891;SDS011;68368;51.728;5.248;2023-07-13T03:09:21;9.80;;;3.50;;
78891;SDS011;68368;51.728;5.248;2023-07-13T03:11:24;9.60;;;3.40;;
78891;SDS011;68368;51.728;5.248;2023-07-13T03:13:28;14.10;;;3.40;;
78891;SDS011;68368;51.728;5.248;2023-07-13T03:15:31;7.40;;;3.00;;
78891;SDS011;68368;51.728;5.248;2023-07-13T03:17:35;10.70;;;3.60;;
78891;SDS011;68368;51.728;5.248;2023-07-13T03:19:38;15.30;;;3.80;;
78891;SDS011;68368;51.728;5.248;2023-07-13T03:21:41;10.90;;;4.00;;
78891;SDS011;68368;51.728;5.248;2023-07-13T03:23:44;12.90;;;4.50;;
78891;SDS011;68368;51.728;5.248;2023-07-13T03:25:48;14.70;;;3.70;;
78891;SDS011;68368;51.728;5.248;2023-07-13T03:27:52;10.60;;;2.80;;
78891;SDS011;68368;51.728;5.248;2023-07-13T03:29:55;11.30;;;4.00;;
78891;SDS011;68368;51.728;5.248;2023-07-13T03:31:58;14.30;;;4.60;;
78891;SDS011;68368;51.728;5.248;2023-07-13T03:34:02;10.80;;;3.90;;
78891;SDS011;68368;51.728;5.248;2023-07-13T03:36:06;10.20;;;3.70;;
78891;SDS011;68368;51.728;5.248;2023-07-13T03:38:12;8.10;;;3.50;;
78891;SDS011;68368;51.728;5.248;2023-07-13T03:40:15;11.20;;;4.30;;
78891;SDS011;68368;51.728;5.248;2023-07-13T03:42:19;13.20;;;3.70;;
78891;SDS011;68368;51.728;5.248;2023-07-13T03:44:22;11.30;;;3.30;;
78891;SDS011;68368;51.728;5.248;2023-07-13T03:46:25;10.00;;;3.60;;
78891;SDS011;68368;51.728;5.248;2023-07-13T03:48:29;12.50;;;4.00;;
78891;SDS011;68368;51.728;5.248;2023-07-13T03:50:32;11.50;;;4.20;;
78891;SDS011;68368;51.728;5.248;2023-07-13T03:52:37;10.20;;;4.00;;
78891;SDS011;68368;51.728;5.248;2023-07-13T03:54:41;11.10;;;4.30;;
78891;SDS011;68368;51.728;5.248;2023-07-13T03:56:44;10.40;;;4.00;;
78891;SDS011;68368;51.728;5.248;2023-07-13T03:58:48;9.20;;;3.60;;
78891;SDS011;68368;51.728;5.248;2023-07-13T04:00:51;8.70;;;3.50;;
78891;SDS011;68368;51.728;5.248;2023-07-13T04:02:55;11.80;;;3.80;;
78891;SDS011;68368;51.728;5.248;2023-07-13T04:04:58;14.10;;;4.50;;
78891;SDS011;68368;51.728;5.248;2023-07-13T04:07:01;10.80;;;3.80;;
78891;SDS011;68368;51.728;5.248;2023-07-13T04:09:05;12.40;;;4.20;;
78891;SDS011;68368;51.728;5.248;2023-07-13T04:11:09;13.00;;;3.90;;
78891;SDS011;68368;51.728;5.248;2023-07-13T04:13:13;11.10;;;3.80;;
78891;SDS011;68368;51.728;5.248;2023-07-13T04:15:16;9.30;;;3.90;;
78891;SDS011;68368;51.728;5.248;2023-07-13T04:17:20;12.30;;;3.50;;
78891;SDS011;68368;51.728;5.248;2023-07-13T04:19:23;8.20;;;3.70;;
78891;SDS011;68368;51.728;5.248;2023-07-13T04:21:27;10.90;;;3.80;;
78891;SDS011;68368;51.728;5.248;2023-07-13T04:23:31;9.60;;;3.70;;
78891;SDS011;68368;51.728;5.248;2023-07-13T04:25:35;11.30;;;3.70;;
78891;SDS011;68368;51.728;5.248;2023-07-13T04:27:39;9.50;;;4.40;;
78891;SDS011;68368;51.728;5.248;2023-07-13T04:29:42;11.90;;;4.00;;
78891;SDS011;68368;51.728;5.248;2023-07-13T04:31:46;9.40;;;3.30;;
78891;SDS011;68368;51.728;5.248;2023-07-13T04:33:50;10.50;;;3.60;;
78891;SDS011;68368;51.728;5.248;2023-07-13T04:35:54;8.80;;;3.70;;
78891;SDS011;68368;51.728;5.248;2023-07-13T04:38:00;10.60;;;4.00;;
78891;SDS011;68368;51.728;5.248;2023-07-13T04:40:03;13.10;;;4.30;;
78891;SDS011;68368;51.728;5.248;2023-07-13T04:42:08;9.10;;;3.50;;
78891;SDS011;68368;51.728;5.248;2023-07-13T04:44:13;11.30;;;4.40;;
78891;SDS011;68368;51.728;5.248;2023-07-13T04:46:17;11.00;;;4.10;;
78891;SDS011;68368;51.728;5.248;2023-07-13T04:48:21;13.20;;;4.30;;
78891;SDS011;68368;51.728;5.248;2023-07-13T04:50:24;11.90;;;4.40;;
78891;SDS011;68368;51.728;5.248;2023-07-13T04:52:28;10.80;;;4.10;;
78891;SDS011;68368;51.728;5.248;2023-07-13T04:54:31;10.70;;;4.80;;
78891;SDS011;68368;51.728;5.248;2023-07-13T04:56:34;13.80;;;4.60;;
78891;SDS011;68368;51.728;5.248;2023-07-13T04:58:37;15.90;;;4.40;;
78891;SDS011;68368;51.728;5.248;2023-07-13T05:00:41;10.10;;;4.40;;
78891;SDS011;68368;51.728;5.248;2023-07-13T05:02:44;9.50;;;4.30;;
78891;SDS011;68368;51.728;5.248;2023-07-13T05:04:47;12.80;;;5.10;;
78891;SDS011;68368;51.728;5.248;2023-07-13T05:06:51;11.20;;;4.60;;
78891;SDS011;68368;51.728;5.248;2023-07-13T05:08:54;13.80;;;4.60;;
78891;SDS011;68368;51.728;5.248;2023-07-13T05:10:58;12.80;;;5.20;;
78891;SDS011;68368;51.728;5.248;2023-07-13T05:13:02;16.60;;;5.00;;
78891;SDS011;68368;51.728;5.248;2023-07-13T05:15:06;11.20;;;4.60;;
78891;SDS011;68368;51.728;5.248;2023-07-13T05:17:10;14.50;;;5.60;;
78891;SDS011;68368;51.728;5.248;2023-07-13T05:19:14;9.50;;;4.60;;
78891;SDS011;68368;51.728;5.248;2023-07-13T05:21:17;16.20;;;5.90;;
78891;SDS011;68368;51.728;5.248;2023-07-13T05:23:20;14.80;;;5.70;;
78891;SDS011;68368;51.728;5.248;2023-07-13T05:25:23;14.20;;;6.10;;
78891;SDS011;68368;51.728;5.248;2023-07-13T05:27:26;17.40;;;7.00;;
78891;SDS011;68368;51.728;5.248;2023-07-13T05:29:29;19.60;;;6.80;;
78891;SDS011;68368;51.728;5.248;2023-07-13T05:31:32;14.40;;;5.90;;
78891;SDS011;68368;51.728;5.248;2023-07-13T05:33:36;15.10;;;6.50;;
78891;SDS011;68368;51.728;5.248;2023-07-13T05:35:39;14.90;;;6.90;;
78891;SDS011;68368;51.728;5.248;2023-07-13T05:37:42;14.30;;;6.30;;
78891;SDS011;68368;51.728;5.248;2023-07-13T05:39:45;12.40;;;6.40;;
78891;SDS011;68368;51.728;5.248;2023-07-13T05:41:49;12.10;;;5.80;;
78891;SDS011;68368;51.728;5.248;2023-07-13T05:43:52;18.20;;;6.10;;
78891;SDS011;68368;51.728;5.248;2023-07-13T05:45:55;13.60;;;5.10;;
78891;SDS011;68368;51.728;5.248;2023-07-13T05:47:59;16.40;;;6.20;;
78891;SDS011;68368;51.728;5.248;2023-07-13T05:50:02;12.10;;;6.10;;
78891;SDS011;68368;51.728;5.248;2023-07-13T05:52:07;13.30;;;5.60;;
78891;SDS011;68368;51.728;5.248;2023-07-13T05:54:10;14.40;;;6.40;;
78891;SDS011;68368;51.728;5.248;2023-07-13T05:56:13;19.40;;;7.60;;
78891;SDS011;68368;51.728;5.248;2023-07-13T05:58:17;13.50;;;6.00;;
78891;SDS011;68368;51.728;5.248;2023-07-13T06:00:21;11.70;;;6.50;;
78891;SDS011;68368;51.728;5.248;2023-07-13T06:02:24;14.20;;;6.50;;
78891;SDS011;68368;51.728;5.248;2023-07-13T06:04:27;14.80;;;6.10;;
78891;SDS011;68368;51.728;5.248;2023-07-13T06:06:30;16.20;;;6.30;;
78891;SDS011;68368;51.728;5.248;2023-07-13T06:08:34;16.50;;;7.10;;
78891;SDS011;68368;51.728;5.248;2023-07-13T06:10:37;20.00;;;7.20;;
78891;SDS011;68368;51.728;5.248;2023-07-13T06:12:40;18.70;;;8.20;;
78891;SDS011;68368;51.728;5.248;2023-07-13T06:14:43;15.20;;;7.70;;
78891;SDS011;68368;51.728;5.248;2023-07-13T06:16:47;16.60;;;7.40;;
78891;SDS011;68368;51.728;5.248;2023-07-13T06:18:50;17.10;;;7.20;;
78891;SDS011;68368;51.728;5.248;2023-07-13T06:20:53;17.30;;;7.60;;
78891;SDS011;68368;51.728;5.248;2023-07-13T06:22:56;15.90;;;7.60;;
78891;SDS011;68368;51.728;5.248;2023-07-13T06:25:02;14.60;;;7.60;;
78891;SDS011;68368;51.728;5.248;2023-07-13T06:27:07;26.60;;;9.30;;
78891;SDS011;68368;51.728;5.248;2023-07-13T06:29:10;21.10;;;8.80;;
78891;SDS011;68368;51.728;5.248;2023-07-13T06:31:13;19.30;;;8.80;;
78891;SDS011;68368;51.728;5.248;2023-07-13T06:33:17;11.70;;;6.10;;
78891;SDS011;68368;51.728;5.248;2023-07-13T06:35:22;17.10;;;7.70;;
78891;SDS011;68368;51.728;5.248;2023-07-13T06:37:25;14.30;;;8.30;;
78891;SDS011;68368;51.728;5.248;2023-07-13T06:39:29;15.20;;;8.60;;
78891;SDS011;68368;51.728;5.248;2023-07-13T06:41:32;14.90;;;8.00;;
78891;SDS011;68368;51.728;5.248;2023-07-13T06:43:35;14.00;;;7.80;;
78891;SDS011;68368;51.728;5.248;2023-07-13T06:45:43;17.60;;;9.00;;
78891;SDS011;68368;51.728;5.248;2023-07-13T06:47:47;16.20;;;8.30;;
78891;SDS011;68368;51.728;5.248;2023-07-13T06:49:50;13.20;;;7.40;;
78891;SDS011;68368;51.728;5.248;2023-07-13T06:51:53;18.30;;;7.90;;
78891;SDS011;68368;51.728;5.248;2023-07-13T06:53:56;13.80;;;7.80;;
78891;SDS011;68368;51.728;5.248;2023-07-13T06:56:01;16.40;;;7.20;;
78891;SDS011;68368;51.728;5.248;2023-07-13T06:58:05;11.70;;;6.40;;
78891;SDS011;68368;51.728;5.248;2023-07-13T07:00:09;16.80;;;8.00;;
78891;SDS011;68368;51.728;5.248;2023-07-13T07:02:14;13.80;;;6.80;;
78891;SDS011;68368;51.728;5.248;2023-07-13T07:04:17;13.70;;;7.90;;
78891;SDS011;68368;51.728;5.248;2023-07-13T07:06:21;13.60;;;7.60;;
78891;SDS011;68368;51.728;5.248;2023-07-13T07:08:25;15.90;;;7.80;;
78891;SDS011;68368;51.728;5.248;2023-07-13T07:10:30;14.30;;;7.20;;
78891;SDS011;68368;51.728;5.248;2023-07-13T07:12:33;13.80;;;7.80;;
78891;SDS011;68368;51.728;5.248;2023-07-13T07:14:36;14.80;;;7.90;;
78891;SDS011;68368;51.728;5.248;2023-07-13T07:16:40;13.60;;;7.10;;
78891;SDS011;68368;51.728;5.248;2023-07-13T07:18:43;14.50;;;7.50;;
78891;SDS011;68368;51.728;5.248;2023-07-13T07:20:47;19.70;;;7.10;;
78891;SDS011;68368;51.728;5.248;2023-07-13T07:22:51;13.30;;;6.70;;
78891;SDS011;68368;51.728;5.248;2023-07-13T07:24:55;16.40;;;7.20;;
78891;SDS011;68368;51.728;5.248;2023-07-13T07:26:58;11.10;;;5.90;;
78891;SDS011;68368;51.728;5.248;2023-07-13T07:29:01;13.90;;;6.00;;
78891;SDS011;68368;51.728;5.248;2023-07-13T07:31:05;12.80;;;6.30;;
78891;SDS011;68368;51.728;5.248;2023-07-13T07:33:08;10.60;;;5.70;;
78891;SDS011;68368;51.728;5.248;2023-07-13T07:35:12;13.20;;;5.80;;
78891;SDS011;68368;51.728;5.248;2023-07-13T07:37:15;9.60;;;5.40;;
78891;SDS011;68368;51.728;5.248;2023-07-13T07:39:18;12.40;;;5.60;;
78891;SDS011;68368;51.728;5.248;2023-07-13T07:41:22;10.50;;;4.70;;
78891;SDS011;68368;51.728;5.248;2023-07-13T07:43:25;10.80;;;5.00;;
78891;SDS011;68368;51.728;5.248;2023-07-13T07:45:28;8.40;;;5.10;;
78891;SDS011;68368;51.728;5.248;2023-07-13T07:47:31;7.90;;;4.50;;
78891;SDS011;68368;51.728;5.248;2023-07-13T07:49:34;12.10;;;5.00;;
78891;SDS011;68368;51.728;5.248;2023-07-13T07:51:38;8.40;;;4.20;;
78891;SDS011;68368;51.728;5.248;2023-07-13T07:53:41;8.00;;;4.20;;
78891;SDS011;68368;51.728;5.248;2023-07-13T07:55:44;10.90;;;4.20;;
78891;SDS011;68368;51.728;5.248;2023-07-13T07:57:49;7.80;;;4.10;;
78891;SDS011;68368;51.728;5.248;2023-07-13T07:59:52;7.70;;;4.00;;
78891;SDS011;68368;51.728;5.248;2023-07-13T08:01:55;8.50;;;4.10;;
78891;SDS011;68368;51.728;5.248;2023-07-13T08:03:58;8.50;;;4.50;;
78891;SDS011;68368;51.728;5.248;2023-07-13T08:06:02;9.60;;;4.10;;
78891;SDS011;68368;51.728;5.248;2023-07-13T08:08:05;6.80;;;4.00;;
78891;SDS011;68368;51.728;5.248;2023-07-13T08:10:08;8.90;;;3.80;;
78891;SDS011;68368;51.728;5.248;2023-07-13T08:12:12;9.70;;;3.80;;
78891;SDS011;68368;51.728;5.248;2023-07-13T08:14:16;8.80;;;3.00;;
78891;SDS011;68368;51.728;5.248;2023-07-13T08:16:19;11.10;;;3.60;;
78891;SDS011;68368;51.728;5.248;2023-07-13T08:18:25;9.60;;;3.30;;
78891;SDS011;68368;51.728;5.248;2023-07-13T08:22:30;9.60;;;3.40;;
78891;SDS011;68368;51.728;5.248;2023-07-13T08:24:33;6.60;;;3.00;;
78891;SDS011;68368;51.728;5.248;2023-07-13T08:26:36;8.50;;;2.90;;
78891;SDS011;68368;51.728;5.248;2023-07-13T08:28:39;7.20;;;2.90;;
78891;SDS011;68368;51.728;5.248;2023-07-13T08:30:42;7.20;;;3.40;;
78891;SDS011;68368;51.728;5.248;2023-07-13T08:32:45;7.10;;;3.00;;
78891;SDS011;68368;51.728;5.248;2023-07-13T08:34:49;7.80;;;3.00;;
78891;SDS011;68368;51.728;5.248;2023-07-13T08:36:52;7.60;;;2.70;;
78891;SDS011;68368;51.728;5.248;2023-07-13T08:38:55;8.30;;;2.70;;
78891;SDS011;68368;51.728;5.248;2023-07-13T08:40:58;7.40;;;3.00;;
78891;SDS011;68368;51.728;5.248;2023-07-13T08:43:07;6.90;;;2.80;;
78891;SDS011;68368;51.728;5.248;2023-07-13T08:45:17;7.40;;;2.90;;
78891;SDS011;68368;51.728;5.248;2023-07-13T08:47:24;8.60;;;2.80;;
78891;SDS011;68368;51.728;5.248;2023-07-13T08:49:29;7.00;;;2.80;;
78891;SDS011;68368;51.728;5.248;2023-07-13T08:51:36;8.70;;;1.80;;
78891;SDS011;68368;51.728;5.248;2023-07-13T08:53:46;4.80;;;2.00;;
78891;SDS011;68368;51.728;5.248;2023-07-13T08:55:58;7.40;;;2.40;;
78891;SDS011;68368;51.728;5.248;2023-07-13T08:58:03;5.70;;;1.90;;
78891;SDS011;68368;51.728;5.248;2023-07-13T09:00:14;5.60;;;2.00;;
78891;SDS011;68368;51.728;5.248;2023-07-13T09:02:20;6.70;;;2.20;;
78891;SDS011;68368;51.728;5.248;2023-07-13T09:04:30;6.80;;;1.90;;
78891;SDS011;68368;51.728;5.248;2023-07-13T09:06:40;7.00;;;2.10;;
78891;SDS011;68368;51.728;5.248;2023-07-13T09:08:53;7.10;;;2.50;;
78891;SDS011;68368;51.728;5.248;2023-07-13T09:11:03;8.00;;;2.40;;
78891;SDS011;68368;51.728;5.248;2023-07-13T09:13:20;7.70;;;2.40;;
78891;SDS011;68368;51.728;5.248;2023-07-13T09:15:31;5.90;;;2.20;;
78891;SDS011;68368;51.728;5.248;2023-07-13T09:17:41;6.90;;;2.40;;
78891;SDS011;68368;51.728;5.248;2023-07-13T09:19:53;8.40;;;2.40;;
78891;SDS011;68368;51.728;5.248;2023-07-13T09:22:01;5.80;;;2.40;;
78891;SDS011;68368;51.728;5.248;2023-07-13T09:24:17;6.70;;;2.30;;
78891;SDS011;68368;51.728;5.248;2023-07-13T09:26:30;7.50;;;1.80;;
78891;SDS011;68368;51.728;5.248;2023-07-13T09:28:37;6.80;;;2.40;;
78891;SDS011;68368;51.728;5.248;2023-07-13T09:30:46;6.30;;;2.40;;
78891;SDS011;68368;51.728;5.248;2023-07-13T09:32:52;5.40;;;1.80;;
78891;SDS011;68368;51.728;5.248;2023-07-13T09:34:56;6.90;;;2.10;;
78891;SDS011;68368;51.728;5.248;2023-07-13T09:36:59;6.50;;;2.20;;
78891;SDS011;68368;51.728;5.248;2023-07-13T09:39:04;6.40;;;2.20;;
78891;SDS011;68368;51.728;5.248;2023-07-13T09:41:17;6.60;;;2.20;;
78891;SDS011;68368;51.728;5.248;2023-07-13T09:43:38;6.80;;;2.20;;
78891;SDS011;68368;51.728;5.248;2023-07-13T09:46:01;6.80;;;2.00;;
78891;SDS011;68368;51.728;5.248;2023-07-13T09:48:05;5.80;;;2.10;;
78891;SDS011;68368;51.728;5.248;2023-07-13T09:50:15;6.70;;;2.20;;
78891;SDS011;68368;51.728;5.248;2023-07-13T09:52:18;8.00;;;2.80;;
78891;SDS011;68368;51.728;5.248;2023-07-13T09:54:23;7.00;;;2.20;;
78891;SDS011;68368;51.728;5.248;2023-07-13T09:56:28;6.30;;;2.50;;
78891;SDS011;68368;51.728;5.248;2023-07-13T09:58:32;4.20;;;2.00;;
78891;SDS011;68368;51.728;5.248;2023-07-13T10:00:38;7.80;;;2.10;;
78891;SDS011;68368;51.728;5.248;2023-07-13T10:02:41;5.10;;;2.10;;
78891;SDS011;68368;51.728;5.248;2023-07-13T10:04:45;5.40;;;1.80;;
78891;SDS011;68368;51.728;5.248;2023-07-13T10:07:05;4.50;;;1.60;;
78891;SDS011;68368;51.728;5.248;2023-07-13T10:09:13;5.20;;;2.10;;
78891;SDS011;68368;51.728;5.248;2023-07-13T10:11:19;7.20;;;2.10;;
78891;SDS011;68368;51.728;5.248;2023-07-13T10:15:43;5.80;;;2.00;;
78891;SDS011;68368;51.728;5.248;2023-07-13T10:17:46;5.50;;;2.10;;
78891;SDS011;68368;51.728;5.248;2023-07-13T10:19:53;9.20;;;2.90;;
78891;SDS011;68368;51.728;5.248;2023-07-13T10:21:57;7.00;;;3.10;;
78891;SDS011;68368;51.728;5.248;2023-07-13T10:24:04;8.70;;;3.40;;
78891;SDS011;68368;51.728;5.248;2023-07-13T10:26:19;10.80;;;3.40;;
78891;SDS011;68368;51.728;5.248;2023-07-13T10:28:29;6.90;;;2.90;;
78891;SDS011;68368;51.728;5.248;2023-07-13T10:30:38;7.20;;;3.10;;
78891;SDS011;68368;51.728;5.248;2023-07-13T10:32:44;7.10;;;2.80;;
78891;SDS011;68368;51.728;5.248;2023-07-13T10:34:48;5.50;;;2.70;;
78891;SDS011;68368;51.728;5.248;2023-07-13T10:36:52;5.70;;;2.50;;
78891;SDS011;68368;51.728;5.248;2023-07-13T10:38:55;7.50;;;3.60;;
78891;SDS011;68368;51.728;5.248;2023-07-13T10:41:02;9.20;;;3.40;;
78891;SDS011;68368;51.728;5.248;2023-07-13T10:43:09;6.70;;;3.20;;
78891;SDS011;68368;51.728;5.248;2023-07-13T10:45:20;8.90;;;3.40;;
78891;SDS011;68368;51.728;5.248;2023-07-13T10:47:25;6.20;;;3.30;;
78891;SDS011;68368;51.728;5.248;2023-07-13T10:49:30;7.00;;;2.80;;
78891;SDS011;68368;51.728;5.248;2023-07-13T10:51:34;6.00;;;2.80;;
78891;SDS011;68368;51.728;5.248;2023-07-13T10:53:39;5.30;;;3.10;;
78891;SDS011;68368;51.728;5.248;2023-07-13T10:55:54;6.30;;;2.90;;
78891;SDS011;68368;51.728;5.248;2023-07-13T10:58:01;8.60;;;3.70;;
78891;SDS011;68368;51.728;5.248;2023-07-13T11:00:17;4.80;;;2.70;;
78891;SDS011;68368;51.728;5.248;2023-07-13T11:02:25;6.60;;;2.10;;
78891;SDS011;68368;51.728;5.248;2023-07-13T11:04:31;3.90;;;1.80;;
78891;SDS011;68368;51.728;5.248;2023-07-13T11:06:43;5.10;;;2.30;;
78891;SDS011;68368;51.728;5.248;2023-07-13T11:08:53;4.50;;;2.10;;
78891;SDS011;68368;51.728;5.248;2023-07-13T11:10:58;3.90;;;2.10;;
78891;SDS011;68368;51.728;5.248;2023-07-13T11:13:01;6.00;;;2.30;;
78891;SDS011;68368;51.728;5.248;2023-07-13T11:15:06;5.10;;;2.50;;
78891;SDS011;68368;51.728;5.248;2023-07-13T11:17:32;5.40;;;2.60;;
78891;SDS011;68368;51.728;5.248;2023-07-13T11:19:41;6.40;;;2.60;;
78891;SDS011;68368;51.728;5.248;2023-07-13T11:24:15;4.90;;;2.60;;
78891;SDS011;68368;51.728;5.248;2023-07-13T11:28:44;5.70;;;2.70;;
78891;SDS011;68368;51.728;5.248;2023-07-13T11:31:00;4.80;;;2.40;;
78891;SDS011;68368;51.728;5.248;2023-07-13T11:33:18;6.00;;;2.60;;
78891;SDS011;68368;51.728;5.248;2023-07-13T11:35:24;5.60;;;1.90;;
78891;SDS011;68368;51.728;5.248;2023-07-13T11:37:29;4.70;;;2.10;;
78891;SDS011;68368;51.728;5.248;2023-07-13T11:39:33;6.10;;;2.40;;
78891;SDS011;68368;51.728;5.248;2023-07-13T11:41:44;3.50;;;1.90;;
78891;SDS011;68368;51.728;5.248;2023-07-13T11:43:53;4.30;;;1.80;;
78891;SDS011;68368;51.728;5.248;2023-07-13T11:46:16;3.60;;;1.70;;
78891;SDS011;68368;51.728;5.248;2023-07-13T11:48:23;3.10;;;1.60;;
78891;SDS011;68368;51.728;5.248;2023-07-13T11:50:28;5.80;;;1.70;;
78891;SDS011;68368;51.728;5.248;2023-07-13T11:52:32;3.30;;;1.70;;
78891;SDS011;68368;51.728;5.248;2023-07-13T11:54:43;3.90;;;2.00;;
78891;SDS011;68368;51.728;5.248;2023-07-13T11:56:50;3.40;;;1.50;;
78891;SDS011;68368;51.728;5.248;2023-07-13T11:58:54;3.20;;;1.50;;
78891;SDS011;68368;51.728;5.248;2023-07-13T12:01:00;5.70;;;2.00;;
78891;SDS011;68368;51.728;5.248;2023-07-13T12:03:04;4.50;;;1.70;;
78891;SDS011;68368;51.728;5.248;2023-07-13T12:05:09;3.60;;;1.90;;
78891;SDS011;68368;51.728;5.248;2023-07-13T12:07:16;5.60;;;1.90;;
78891;SDS011;68368;51.728;5.248;2023-07-13T12:09:20;6.00;;;1.80;;
78891;SDS011;68368;51.728;5.248;2023-07-13T12:11:23;4.30;;;1.70;;
78891;SDS011;68368;51.728;5.248;2023-07-13T12:13:27;3.10;;;1.60;;
78891;SDS011;68368;51.728;5.248;2023-07-13T12:15:36;2.90;;;1.50;;
78891;SDS011;68368;51.728;5.248;2023-07-13T12:17:41;3.80;;;1.50;;
78891;SDS011;68368;51.728;5.248;2023-07-13T12:19:45;2.60;;;1.40;;
78891;SDS011;68368;51.728;5.248;2023-07-13T12:21:49;6.60;;;1.60;;
78891;SDS011;68368;51.728;5.248;2023-07-13T12:23:54;3.20;;;1.60;;
78891;SDS011;68368;51.728;5.248;2023-07-13T12:25:58;4.40;;;1.90;;
78891;SDS011;68368;51.728;5.248;2023-07-13T12:28:03;3.70;;;1.50;;
78891;SDS011;68368;51.728;5.248;2023-07-13T12:30:25;4.40;;;1.40;;
78891;SDS011;68368;51.728;5.248;2023-07-13T12:32:30;3.90;;;1.40;;
78891;SDS011;68368;51.728;5.248;2023-07-13T12:34:49;3.20;;;1.50;;
78891;SDS011;68368;51.728;5.248;2023-07-13T12:36:55;4.80;;;1.80;;
78891;SDS011;68368;51.728;5.248;2023-07-13T12:39:04;3.40;;;1.30;;
78891;SDS011;68368;51.728;5.248;2023-07-13T12:41:14;3.50;;;1.30;;